Time;durP1;ratioP1;P1;durP2;ratioP2;P2;SDS_P1;SDS_P2;PMS_P1;PMS_P2;Temp;Humidity;BMP_temperature;BMP_pressure;BME280_temperature;BME280_humidity;BME280_pressure;Samples;Min_cycle;Max_cycle;Signal;HPM_P1;HPM_P2
2022/09/12 00:01:57;;;;;;;7.00;5.40;;;9.00;99.90;;;;;;4066804;29;20200;-67
2022/09/12 00:04:00;;;;;;;8.70;5.13;;;9.00;99.90;;;;;;4066558;29;20266;-67
2022/09/12 00:06:00;;;;;;;6.90;5.00;;;8.90;99.90;;;;;;4066445;29;20575;-67
2022/09/12 00:08:01;;;;;;;7.63;5.13;;;8.90;99.90;;;;;;4066609;29;20191;-67
2022/09/12 00:10:02;;;;;;;8.57;5.40;;;8.90;99.90;;;;;;4066263;29;20210;-67
2022/09/12 00:12:03;;;;;;;8.13;5.00;;;8.80;99.90;;;;;;4066438;29;20203;-67
2022/09/12 00:14:04;;;;;;;8.47;5.30;;;8.80;99.90;;;;;;4066531;29;20185;-67
2022/09/12 00:16:05;;;;;;;9.37;4.83;;;8.80;99.90;;;;;;4066408;29;20229;-67
2022/09/12 00:18:08;;;;;;;6.20;4.70;;;8.80;99.90;;;;;;4065768;29;20521;-67
2022/09/12 00:20:10;;;;;;;7.43;5.03;;;8.80;99.90;;;;;;4065724;29;20316;-67
2022/09/12 00:22:10;;;;;;;7.03;5.07;;;8.80;99.90;;;;;;4066182;29;20432;-68
2022/09/12 00:24:11;;;;;;;6.60;4.70;;;8.80;99.90;;;;;;4066273;29;21064;-68
2022/09/12 00:26:12;;;;;;;7.17;4.03;;;8.80;99.90;;;;;;4066420;29;20248;-68
2022/09/12 00:28:15;;;;;;;6.33;4.70;;;8.80;99.90;;;;;;4066510;29;20245;-68
2022/09/12 00:30:16;;;;;;;5.80;3.87;;;8.70;99.90;;;;;;4065550;29;20477;-67
2022/09/12 00:32:16;;;;;;;6.67;4.40;;;8.70;99.90;;;;;;4066197;29;20196;-67
2022/09/12 00:34:17;;;;;;;6.27;5.17;;;8.70;99.90;;;;;;4066201;29;20200;-67
2022/09/12 00:36:20;;;;;;;7.97;4.77;;;8.70;99.90;;;;;;4066199;29;20193;-67
2022/09/12 00:38:21;;;;;;;6.23;4.27;;;8.70;99.90;;;;;;4066146;29;20191;-67
2022/09/12 00:40:22;;;;;;;6.10;4.77;;;8.60;99.90;;;;;;4065450;29;20518;-67
2022/09/12 00:42:22;;;;;;;8.13;4.93;;;8.70;99.90;;;;;;4066149;29;20268;-67
2022/09/12 00:44:23;;;;;;;8.97;5.40;;;8.70;99.90;;;;;;4065879;29;20214;-67
2022/09/12 00:47:05;;;;;;;7.87;4.57;;;8.70;99.90;;;;;;4066115;29;20198;-67
2022/09/12 00:49:14;;;;;;;8.10;4.73;;;8.70;99.90;;;;;;4094674;28;20240;-67
2022/09/12 00:51:15;;;;;;;6.73;4.80;;;8.70;99.90;;;;;;4077906;29;20286;-67
2022/09/12 00:53:17;;;;;;;7.63;5.20;;;8.80;99.90;;;;;;4066154;29;20468;-67
2022/09/12 00:55:27;;;;;;;7.73;5.20;;;8.80;99.90;;;;;;4065990;29;20202;-67
2022/09/12 00:57:44;;;;;;;7.93;4.80;;;8.70;99.90;;;;;;4066142;29;20548;-67
2022/09/12 00:59:50;;;;;;;8.47;4.93;;;8.70;99.90;;;;;;4065227;29;20456;-67
2022/09/12 01:01:51;;;;;;;6.70;4.57;;;8.70;99.90;;;;;;4066116;29;20188;-67
2022/09/12 01:03:52;;;;;;;5.87;4.37;;;8.70;99.90;;;;;;4066170;29;20768;-67
2022/09/12 01:06:10;;;;;;;6.17;4.57;;;8.60;99.90;;;;;;4065800;29;20198;-68
2022/09/12 01:08:11;;;;;;;5.00;3.53;;;8.60;99.90;;;;;;4065935;29;20183;-68
2022/09/12 01:10:12;;;;;;;5.33;4.37;;;8.50;99.90;;;;;;4065124;29;20266;-68
2022/09/12 01:12:14;;;;;;;7.27;4.43;;;8.50;99.90;;;;;;4065995;29;20190;-68
2022/09/12 01:14:16;;;;;;;5.87;3.83;;;8.50;99.90;;;;;;4066007;29;20615;-68
2022/09/12 01:16:17;;;;;;;5.37;4.40;;;8.50;99.90;;;;;;4066231;29;20247;-68
2022/09/12 01:18:31;;;;;;;7.17;4.47;;;8.50;99.90;;;;;;4064883;29;20438;-68
2022/09/12 01:20:46;;;;;;;5.03;3.70;;;8.50;99.90;;;;;;4065726;29;20308;-68
2022/09/12 01:23:17;;;;;;;4.70;3.60;;;8.40;99.90;;;;;;4066082;29;20426;-68
2022/09/12 01:25:32;;;;;;;5.20;3.90;;;8.40;99.90;;;;;;4065969;29;20420;-68
2022/09/12 01:27:45;;;;;;;7.47;3.83;;;8.30;99.90;;;;;;4065861;29;20409;-68
2022/09/12 01:30:00;;;;;;;4.87;3.83;;;8.30;99.90;;;;;;4067386;29;20449;-68
2022/09/12 01:32:12;;;;;;;8.17;3.90;;;8.30;99.90;;;;;;4068834;29;20412;-68
2022/09/12 01:34:19;;;;;;;7.50;4.30;;;8.30;99.90;;;;;;4067637;29;20418;-68
2022/09/12 01:36:38;;;;;;;7.43;4.40;;;8.30;99.90;;;;;;4083402;29;20484;-67
2022/09/12 01:38:47;;;;;;;6.30;4.07;;;8.30;99.90;;;;;;4068211;29;20417;-68
2022/09/12 01:41:12;;;;;;;5.67;4.17;;;8.30;99.90;;;;;;4068741;29;20531;-69
2022/09/12 01:43:26;;;;;;;4.83;3.70;;;8.30;99.90;;;;;;4068602;29;20452;-68
2022/09/12 01:45:29;;;;;;;4.73;3.73;;;8.30;99.90;;;;;;4069128;29;21046;-68
2022/09/12 01:48:02;;;;;;;6.13;4.43;;;8.30;99.90;;;;;;4068792;29;20584;-68
2022/09/12 01:50:10;;;;;;;5.37;3.83;;;8.30;99.90;;;;;;4067788;29;20490;-68
2022/09/12 01:52:25;;;;;;;4.40;3.43;;;8.20;99.90;;;;;;4068744;29;20480;-68
2022/09/12 01:54:34;;;;;;;6.10;3.60;;;8.20;99.90;;;;;;4068975;29;20443;-69
2022/09/12 01:56:38;;;;;;;4.77;3.67;;;8.20;99.90;;;;;;4068865;29;20806;-69
2022/09/12 01:58:46;;;;;;;4.80;3.60;;;8.20;99.90;;;;;;4067880;29;20933;-68
2022/09/12 02:00:58;;;;;;;7.70;4.33;;;8.20;99.90;;;;;;4068253;29;20827;-68
2022/09/12 02:03:07;;;;;;;6.77;4.70;;;8.20;99.90;;;;;;4068523;29;20432;-68
2022/09/12 02:05:13;;;;;;;5.93;3.57;;;8.20;99.90;;;;;;4068529;29;20557;-68
2022/09/12 02:07:19;;;;;;;5.37;3.70;;;8.20;99.90;;;;;;4068571;29;20424;-68
2022/09/12 02:09:35;;;;;;;7.50;4.40;;;8.20;99.90;;;;;;4067734;29;20405;-69
2022/09/12 02:11:40;;;;;;;6.80;4.40;;;8.10;99.90;;;;;;4068173;29;20421;-68
2022/09/12 02:13:57;;;;;;;5.30;4.00;;;8.10;99.90;;;;;;4068302;29;20437;-69
2022/09/12 02:16:06;;;;;;;6.67;4.37;;;8.20;99.90;;;;;;4068275;29;20453;-69
2022/09/12 02:18:14;;;;;;;5.73;4.20;;;8.20;99.90;;;;;;4068333;29;20405;-68
2022/09/12 02:20:22;;;;;;;5.67;4.23;;;8.20;99.90;;;;;;4063566;29;20488;-68
2022/09/12 02:22:28;;;;;;;5.90;4.23;;;8.20;99.90;;;;;;4068049;29;20433;-68
2022/09/12 02:24:38;;;;;;;4.90;3.83;;;8.20;99.90;;;;;;4068351;29;20475;-68
2022/09/12 02:26:51;;;;;;;6.60;4.33;;;8.10;99.90;;;;;;4068186;29;20428;-69
2022/09/12 02:28:51;;;;;;;8.57;3.97;;;8.10;99.90;;;;;;4067378;29;20470;-68
2022/09/12 02:30:59;;;;;;;6.27;3.97;;;8.00;99.90;;;;;;4068009;29;20449;-68
2022/09/12 02:33:06;;;;;;;6.73;4.03;;;8.00;99.90;;;;;;4068051;29;20550;-69
2022/09/12 02:35:30;;;;;;;5.90;3.57;;;8.00;99.90;;;;;;4073545;29;20464;-68
2022/09/12 02:38:08;;;;;;;7.90;4.00;;;7.90;99.90;;;;;;4083498;29;20430;-68
2022/09/12 02:40:09;;;;;;;5.50;3.80;;;7.90;99.90;;;;;;4081613;29;20551;-68
2022/09/12 02:42:10;;;;;;;7.37;3.60;;;8.00;99.90;;;;;;4083333;29;21263;-69
2022/09/12 02:44:10;;;;;;;5.37;3.63;;;8.00;99.90;;;;;;4083459;29;20218;-69
2022/09/12 02:46:35;;;;;;;5.23;3.67;;;7.90;99.90;;;;;;4083570;29;20420;-68
2022/09/12 02:48:40;;;;;;;3.67;2.93;;;8.00;99.90;;;;;;4083227;29;20192;-68
2022/09/12 02:50:41;;;;;;;5.90;3.73;;;7.90;99.90;;;;;;4083462;29;20495;-69
2022/09/12 02:52:43;;;;;;;6.43;4.07;;;7.90;99.90;;;;;;4083391;29;20424;-69
2022/09/12 02:54:44;;;;;;;5.20;3.83;;;7.80;99.90;;;;;;4083506;29;20523;-69
2022/09/12 02:56:45;;;;;;;11.17;4.20;;;7.90;99.90;;;;;;4083434;29;20440;-69
2022/09/12 02:58:46;;;;;;;4.60;3.77;;;7.80;99.90;;;;;;4073767;29;20533;-68
2022/09/12 03:00:59;;;;;;;4.70;3.43;;;7.80;99.90;;;;;;4068202;29;20541;-68
2022/09/12 03:03:26;;;;;;;7.23;3.67;;;7.80;99.90;;;;;;4068142;29;20428;-69
2022/09/12 03:05:48;;;;;;;4.97;3.17;;;7.70;99.90;;;;;;4068707;29;20428;-69
2022/09/12 03:08:07;;;;;;;4.03;2.97;;;7.70;99.90;;;;;;4068404;29;20405;-69
2022/09/12 03:10:21;;;;;;;4.70;3.00;;;7.70;99.90;;;;;;4067802;29;20454;-69
2022/09/12 03:12:32;;;;;;;5.10;3.20;;;7.70;99.90;;;;;;4068060;29;20433;-70
2022/09/12 03:14:53;;;;;;;5.37;3.63;;;7.60;99.90;;;;;;4067243;29;20808;-68
2022/09/12 03:17:16;;;;;;;5.50;3.30;;;7.60;99.90;;;;;;4074012;29;20444;-68
2022/09/12 03:19:22;;;;;;;4.63;3.37;;;7.60;99.90;;;;;;4067231;29;20429;-68
2022/09/12 03:21:36;;;;;;;5.90;4.13;;;7.60;99.90;;;;;;4068081;29;20417;-69
2022/09/12 03:23:40;;;;;;;8.53;4.03;;;7.70;99.90;;;;;;4067739;29;20536;-68
2022/09/12 03:25:59;;;;;;;7.00;4.10;;;7.70;99.90;;;;;;4067925;29;20495;-69
2022/09/12 03:28:13;;;;;;;7.13;4.03;;;7.70;99.90;;;;;;4082536;29;20471;-69
2022/09/12 03:30:13;;;;;;;7.03;3.70;;;7.70;99.90;;;;;;4067279;29;21005;-69
2022/09/12 03:32:14;;;;;;;5.13;3.50;;;7.70;99.90;;;;;;4068321;29;20421;-69
2022/09/12 03:34:15;;;;;;;4.27;3.50;;;7.70;99.90;;;;;;4067872;29;20185;-69
2022/09/12 03:36:21;;;;;;;4.53;3.27;;;7.70;99.90;;;;;;4068252;29;20479;-69
2022/09/12 03:38:22;;;;;;;5.40;4.20;;;7.70;99.90;;;;;;4068069;29;20228;-68
2022/09/12 03:40:22;;;;;;;6.00;4.10;;;7.70;99.90;;;;;;4067510;29;20492;-68
2022/09/12 03:42:23;;;;;;;4.47;3.50;;;7.70;99.90;;;;;;4067929;29;20189;-70
2022/09/12 03:44:24;;;;;;;5.03;3.70;;;7.60;99.90;;;;;;4068092;29;20241;-69
2022/09/12 03:46:25;;;;;;;5.33;3.07;;;7.60;99.90;;;;;;4068150;29;20193;-69
2022/09/12 03:48:26;;;;;;;5.77;3.80;;;7.60;99.90;;;;;;4067912;29;21384;-69
2022/09/12 03:50:26;;;;;;;5.40;3.33;;;7.50;99.90;;;;;;4067652;29;20296;-69
2022/09/12 03:52:27;;;;;;;4.43;3.50;;;7.50;99.90;;;;;;4067114;29;20189;-69
2022/09/12 03:54:27;;;;;;;5.53;4.07;;;7.50;99.90;;;;;;4068409;29;20221;-69
2022/09/12 03:56:28;;;;;;;5.57;3.80;;;7.60;99.90;;;;;;4068021;29;20196;-69
2022/09/12 03:58:30;;;;;;;5.67;3.83;;;7.60;99.90;;;;;;4067515;29;20272;-68
2022/09/12 04:00:30;;;;;;;5.57;4.23;;;7.60;99.90;;;;;;4067687;29;20634;-69
2022/09/12 04:02:31;;;;;;;5.83;3.83;;;7.50;99.90;;;;;;4067556;29;20429;-68
2022/09/12 04:04:32;;;;;;;7.30;4.00;;;7.50;99.90;;;;;;4067588;29;20220;-69
2022/09/12 04:06:32;;;;;;;5.60;3.40;;;7.60;99.90;;;;;;4066161;29;20192;-69
2022/09/12 04:08:34;;;;;;;4.43;3.47;;;7.60;99.90;;;;;;4066016;29;20248;-68
2022/09/12 04:10:35;;;;;;;3.30;2.80;;;7.60;99.90;;;;;;4067564;29;20213;-69
2022/09/12 04:12:35;;;;;;;4.00;3.10;;;7.50;99.90;;;;;;4067479;29;20429;-69
2022/09/12 04:14:36;;;;;;;4.07;2.97;;;7.40;99.90;;;;;;4067557;29;20189;-69
2022/09/12 04:16:37;;;;;;;4.70;3.30;;;7.40;99.90;;;;;;4067644;29;20620;-69
2022/09/12 04:18:37;;;;;;;6.00;3.80;;;7.40;99.90;;;;;;4066857;29;20212;-68
2022/09/12 04:20:38;;;;;;;6.47;3.87;;;7.40;99.90;;;;;;4067280;29;20220;-69
2022/09/12 04:22:39;;;;;;;4.73;3.67;;;7.40;99.90;;;;;;4067467;29;20240;-69
2022/09/12 04:24:39;;;;;;;3.40;3.10;;;7.40;99.90;;;;;;4067488;29;20638;-68
2022/09/12 04:26:40;;;;;;;5.43;3.40;;;7.40;99.90;;;;;;4067391;29;20185;-68
2022/09/12 04:28:40;;;;;;;4.10;3.20;;;7.30;99.90;;;;;;4064644;29;20272;-69
2022/09/12 04:30:41;;;;;;;6.73;3.10;;;7.30;99.90;;;;;;4058918;29;20392;-69
2022/09/12 04:32:41;;;;;;;7.60;4.37;;;7.30;99.90;;;;;;4063694;29;20335;-68
2022/09/12 04:34:42;;;;;;;7.77;3.73;;;7.40;99.90;;;;;;4067147;29;20714;-68
2022/09/12 04:36:42;;;;;;;7.57;3.93;;;7.40;99.90;;;;;;4067263;29;20207;-68
2022/09/12 04:38:45;;;;;;;4.70;3.63;;;7.40;99.90;;;;;;4066701;29;20188;-69
2022/09/12 04:40:46;;;;;;;4.13;3.30;;;7.40;99.90;;;;;;4067507;29;20208;-68
2022/09/12 04:42:46;;;;;;;9.03;4.17;;;7.40;99.90;;;;;;4067435;29;20468;-69
